Time;durP1;ratioP1;P1;durP2;ratioP2;P2;SDS_P1;SDS_P2;PMS_P1;PMS_P2;Temp;Humidity;BMP_temperature;BMP_pressure;BME280_temperature;BME280_humidity;BME280_pressure;Samples;Min_cycle;Max_cycle;Signal;HPM_P1;HPM_P2
2021/10/24 00:00:09;;;;;;;17.70;12.07;;;;;;;5.51;98.53;102760.53;5114878;28;20036;-35
2021/10/24 00:02:36;;;;;;;19.17;12.43;;;;;;;5.52;98.25;102748.81;5115014;28;20027;-35
2021/10/24 00:05:02;;;;;;;17.77;11.57;;;;;;;5.41;98.35;102755.22;5114457;28;20389;-35
2021/10/24 00:07:27;;;;;;;16.00;11.98;;;;;;;5.42;98.83;102738.16;5114462;28;20030;-35
2021/10/24 00:09:53;;;;;;;20.03;12.87;;;;;;;5.51;98.64;102757.00;5114443;28;20119;-35
2021/10/24 00:12:19;;;;;;;15.90;11.27;;;;;;;5.41;98.76;102736.44;5114416;28;20095;-35
2021/10/24 00:14:45;;;;;;;15.80;10.95;;;;;;;5.49;98.41;102757.16;5114291;28;20110;-35
2021/10/24 00:17:10;;;;;;;21.05;12.32;;;;;;;5.53;99.11;102752.34;5114325;28;20023;-35
2021/10/24 00:19:36;;;;;;;14.23;11.33;;;;;;;5.39;98.48;102734.91;5114230;28;20133;-35
2021/10/24 00:22:03;;;;;;;22.67;11.85;;;;;;;5.39;98.21;102751.00;5114470;28;20145;-35
2021/10/24 00:24:28;;;;;;;17.48;12.18;;;;;;;5.42;99.04;102748.88;5114227;28;20405;-35
2021/10/24 00:26:54;;;;;;;19.00;11.97;;;;;;;5.42;98.97;102732.78;5113950;28;20034;-35
2021/10/24 00:29:19;;;;;;;17.83;12.70;;;;;;;5.35;98.67;102734.38;5114175;28;20069;-35
2021/10/24 00:31:44;;;;;;;17.60;11.63;;;;;;;5.38;99.02;102744.81;5114696;28;20069;-35
2021/10/24 00:34:10;;;;;;;18.27;12.83;;;;;;;5.25;98.65;102720.16;5096450;28;20100;-35
2021/10/24 00:36:35;;;;;;;14.07;11.57;;;;;;;5.31;99.39;102730.28;5114023;28;20019;-35
2021/10/24 00:39:00;;;;;;;17.07;12.20;;;;;;;5.34;99.04;102735.38;5114010;28;20020;-35
2021/10/24 00:41:29;;;;;;;20.83;14.00;;;;;;;5.36;99.45;102733.34;5113659;28;20023;-35
2021/10/24 00:43:55;;;;;;;16.77;11.80;;;;;;;5.33;99.02;102744.41;5114025;28;20151;-36
2021/10/24 00:46:20;;;;;;;22.70;14.03;;;;;;;5.30;98.98;102747.38;5114224;28;20020;-35
2021/10/24 00:48:45;;;;;;;21.00;14.60;;;;;;;5.20;99.54;102726.97;5114347;28;20098;-35
2021/10/24 00:51:11;;;;;;;17.83;12.30;;;;;;;5.30;99.14;102750.06;5113833;28;20503;-35
2021/10/24 00:53:37;;;;;;;24.47;14.80;;;;;;;5.25;99.53;102747.00;5113510;28;20084;-35
2021/10/24 00:56:03;;;;;;;27.05;15.80;;;;;;;5.23;99.37;102740.09;5114026;28;20016;-35
2021/10/24 00:58:30;;;;;;;20.67;14.35;;;;;;;5.20;99.16;102743.91;5114302;28;20030;-35
2021/10/24 01:00:55;;;;;;;18.88;14.27;;;;;;;5.09;99.23;102719.97;5113650;28;20023;-35
2021/10/24 01:03:20;;;;;;;21.00;13.73;;;;;;;5.09;99.46;102719.97;5113298;28;20451;-35
2021/10/24 01:05:46;;;;;;;23.73;14.33;;;;;;;5.11;99.63;102726.88;5113671;28;20024;-35
2021/10/24 01:08:12;;;;;;;16.73;12.77;;;;;;;5.18;99.23;102737.03;5113570;28;20028;-35
2021/10/24 01:10:37;;;;;;;18.93;12.23;;;;;;;5.14;99.21;102728.44;5114306;28;20046;-35
2021/10/24 01:13:03;;;;;;;19.93;12.67;;;;;;;5.12;99.57;102738.44;5113916;28;20450;-35
2021/10/24 01:15:29;;;;;;;17.15;12.50;;;;;;;5.13;99.85;102732.09;5113772;28;20044;-35
2021/10/24 01:17:54;;;;;;;16.88;13.05;;;;;;;5.03;99.41;102731.31;5113291;28;20047;-35
2021/10/24 01:20:22;;;;;;;15.53;11.17;;;;;;;5.04;99.11;102727.63;5113696;28;20035;-35
2021/10/24 01:22:48;;;;;;;17.90;11.50;;;;;;;4.93;99.46;102714.41;5113601;28;20380;-35
2021/10/24 01:25:14;;;;;;;15.32;11.98;;;;;;;4.91;97.84;102714.56;5113567;28;20111;-35
2021/10/24 01:27:40;;;;;;;11.73;9.02;;;;;;;4.95;99.31;102712.44;5113442;28;20034;-35
2021/10/24 01:30:06;;;;;;;17.80;10.75;;;;;;;4.94;98.96;102718.78;5113355;28;20015;-35
2021/10/24 01:32:32;;;;;;;15.32;11.30;;;;;;;4.96;99.16;102711.44;5113933;28;20011;-35
2021/10/24 01:34:59;;;;;;;13.45;11.45;;;;;;;4.73;98.44;102682.31;5113113;28;20212;-35
2021/10/24 01:37:40;;;;;;;17.38;12.18;;;;;;;4.91;99.32;102719.91;5113878;28;20074;-35
2021/10/24 01:40:15;;;;;;;14.02;11.82;;;;;;;4.84;98.71;102717.00;5113797;28;20046;-35
2021/10/24 01:42:48;;;;;;;18.63;11.43;;;;;;;4.89;98.64;102711.19;5113744;28;20073;-35
2021/10/24 01:45:14;;;;;;;15.13;10.70;;;;;;;4.76;99.46;102682.03;5112960;28;20015;-35
2021/10/24 01:47:40;;;;;;;20.23;12.27;;;;;;;4.90;98.90;102708.34;5113285;28;20089;-35
2021/10/24 01:50:05;;;;;;;17.07;12.03;;;;;;;4.82;98.78;102707.41;5113239;28;20020;-35
2021/10/24 01:52:31;;;;;;;18.02;10.88;;;;;;;4.81;98.43;102695.84;5113721;28;20134;-35
2021/10/24 01:54:56;;;;;;;16.50;11.77;;;;;;;4.76;98.01;102698.13;5095095;28;20031;-35
2021/10/24 01:57:21;;;;;;;15.20;12.10;;;;;;;4.52;98.44;102660.28;5113722;28;20095;-35
2021/10/24 01:59:47;;;;;;;21.87;12.10;;;;;;;4.71;98.83;102689.69;5113173;28;20355;-35
2021/10/24 02:02:12;;;;;;;15.77;10.90;;;;;;;4.64;99.36;102670.66;5112865;28;20485;-35
2021/10/24 02:04:37;;;;;;;14.13;11.87;;;;;;;4.67;98.91;102688.28;5113310;28;20023;-35
2021/10/24 02:07:03;;;;;;;15.23;12.13;;;;;;;4.65;98.82;102690.28;5113507;28;20031;-35
2021/10/24 02:09:28;;;;;;;18.23;11.90;;;;;;;4.51;98.52;102667.47;5113099;28;20044;-35
2021/10/24 02:11:54;;;;;;;15.25;11.50;;;;;;;4.66;98.94;102689.28;5113575;28;20027;-35
2021/10/24 02:14:19;;;;;;;17.80;12.67;;;;;;;4.60;99.76;102681.81;5115354;28;20046;-35
2021/10/24 02:16:44;;;;;;;13.50;11.80;;;;;;;4.58;98.57;102678.44;5116556;28;20101;-35
2021/10/24 02:19:10;;;;;;;16.33;11.87;;;;;;;4.49;98.49;102676.63;5116192;28;20019;-35
2021/10/24 02:21:36;;;;;;;;;;;;;;;4.66;98.52;102675.88;5117553;28;20051;-35
2021/10/24 02:24:01;;;;;;;16.50;10.77;;;;;;;4.54;98.10;102677.91;5116423;28;19908;-35
2021/10/24 02:26:26;;;;;;;17.97;11.60;;;;;;;4.57;98.70;102671.38;5116639;28;20281;-35
2021/10/24 02:28:52;;;;;;;15.90;11.67;;;;;;;4.50;98.46;102649.72;5116732;28;20016;-35
2021/10/24 02:31:17;;;;;;;15.50;10.43;;;;;;;4.58;99.25;102662.34;5116424;28;20074;-35
2021/10/24 02:33:42;;;;;;;17.07;12.83;;;;;;;4.51;98.87;102647.88;5116133;28;20026;-35
2021/10/24 02:36:08;;;;;;;16.30;11.80;;;;;;;4.49;98.77;102661.44;5116236;28;20436;-35
2021/10/24 02:38:33;;;;;;;14.33;10.87;;;;;;;4.43;99.33;102642.41;5116071;28;20408;-35
2021/10/24 02:40:58;;;;;;;15.67;11.83;;;;;;;4.49;99.48;102652.50;5116139;28;20035;-35
2021/10/24 02:43:24;;;;;;;16.60;11.80;;;;;;;4.49;99.14;102642.66;5115832;28;20019;-35
2021/10/24 02:45:49;;;;;;;17.33;12.43;;;;;;;4.37;98.91;102633.94;5115796;28;20019;-35
2021/10/24 02:48:14;;;;;;;15.90;11.60;;;;;;;4.46;99.23;102639.44;5116540;28;20055;-35
2021/10/24 02:50:40;;;;;;;14.63;11.23;;;;;;;4.37;98.78;102633.13;5116048;28;20452;-35
2021/10/24 02:53:05;;;;;;;15.37;12.17;;;;;;;4.42;98.49;102636.19;5116456;28;20064;-35
2021/10/24 02:55:30;;;;;;;13.47;10.87;;;;;;;4.39;98.15;102642.72;5115838;28;20026;-35
2021/10/24 02:57:56;;;;;;;13.77;11.53;;;;;;;4.43;98.81;102639.72;5116422;28;20043;-35
2021/10/24 03:00:21;;;;;;;15.53;12.07;;;;;;;4.36;98.56;102648.34;5115818;28;20454;-35
2021/10/24 03:02:47;;;;;;;14.90;12.00;;;;;;;4.32;98.46;102636.22;5115728;28;20249;-35
2021/10/24 03:05:13;;;;;;;20.55;12.32;;;;;;;4.23;99.06;102621.03;5115402;28;20425;-35
2021/10/24 03:07:38;;;;;;;17.33;11.80;;;;;;;4.35;98.87;102635.94;5115965;28;20031;-35
2021/10/24 03:10:05;;;;;;;15.93;12.37;;;;;;;4.22;98.18;102631.91;5115593;28;20363;-35
2021/10/24 03:12:30;;;;;;;16.67;12.02;;;;;;;4.25;98.02;102637.81;5115743;28;20059;-35
2021/10/24 03:14:55;;;;;;;13.57;11.57;;;;;;;4.23;98.40;102638.94;5115812;28;20024;-35
2021/10/24 03:17:21;;;;;;;17.20;11.53;;;;;;;3.98;98.62;102602.94;5115244;28;20016;-35
2021/10/24 03:19:46;;;;;;;14.00;10.53;;;;;;;4.17;98.96;102634.16;5115633;28;20096;-35
2021/10/24 03:22:12;;;;;;;16.27;12.73;;;;;;;4.19;99.01;102621.47;5115626;28;20360;-35
2021/10/24 03:24:38;;;;;;;14.67;11.53;;;;;;;4.19;98.87;102621.47;5114510;28;20024;-35
2021/10/24 03:27:04;;;;;;;17.23;12.02;;;;;;;4.24;99.60;102622.72;5115330;28;20027;-35
2021/10/24 03:29:29;;;;;;;12.70;11.23;;;;;;;4.25;99.44;102619.06;5115474;28;20023;-35
2021/10/24 03:31:54;;;;;;;17.47;12.50;;;;;;;4.18;99.38;102609.91;5115292;28;20084;-35
2021/10/24 03:34:20;;;;;;;15.83;12.40;;;;;;;4.18;99.88;102607.25;5114798;28;20467;-35
2021/10/24 03:36:46;;;;;;;15.53;12.13;;;;;;;4.18;99.48;102623.31;5115218;28;20020;-35
2021/10/24 03:39:11;;;;;;;;;;;;;;;4.29;99.40;102619.59;5115694;28;20023;-35
2021/10/24 03:41:37;;;;;;;17.15;12.07;;;;;;;4.14;98.98;102621.91;5115027;28;19994;-35
2021/10/24 03:44:03;;;;;;;20.25;11.55;;;;;;;4.17;99.47;102624.31;5114923;28;20051;-35
2021/10/24 03:46:31;;;;;;;16.23;12.25;;;;;;;4.05;99.44;102607.56;5114880;28;20097;-36
2021/10/24 03:49:00;;;;;;;14.07;12.10;;;;;;;4.00;99.30;102612.53;5115286;28;20023;-35
2021/10/24 03:51:25;;;;;;;17.90;12.30;;;;;;;4.03;98.55;102616.72;5114813;28;20038;-35
2021/10/24 03:53:51;;;;;;;13.70;11.43;;;;;;;4.05;98.54;102628.13;5114992;28;20023;-35
2021/10/24 03:56:16;;;;;;;16.97;12.57;;;;;;;4.02;98.96;102623.06;5115076;28;20098;-35
2021/10/24 03:58:44;;;;;;;16.00;11.98;;;;;;;4.06;99.54;102625.31;5114970;28;20020;-35
2021/10/24 04:01:09;;;;;;;15.88;11.95;;;;;;;3.99;99.69;102618.84;5114869;28;20049;-35
2021/10/24 04:03:35;;;;;;;20.67;12.90;;;;;;;4.06;99.33;102629.84;5114253;28;20102;-35
2021/10/24 04:06:00;;;;;;;13.40;11.07;;;;;;;4.08;99.64;102625.16;5114296;28;20102;-35
2021/10/24 04:08:26;;;;;;;17.07;11.50;;;;;;;4.04;99.31;102627.28;5115000;28;20090;-35
2021/10/24 04:10:51;;;;;;;16.52;11.65;;;;;;;3.91;99.29;102610.72;5114406;28;20264;-35
2021/10/24 04:13:17;;;;;;;18.03;12.37;;;;;;;4.00;99.86;102625.03;5114639;28;20396;-35
2021/10/24 04:15:42;;;;;;;13.77;10.73;;;;;;;3.99;99.10;102618.84;5114380;28;20020;-35
2021/10/24 04:18:08;;;;;;;12.60;10.98;;;;;;;3.92;99.36;102612.38;5114643;28;20410;-35
2021/10/24 04:20:34;;;;;;;14.13;11.48;;;;;;;3.97;99.43;102622.66;5114385;28;20180;-35
2021/10/24 04:22:59;;;;;;;14.80;10.77;;;;;;;3.85;98.67;102600.56;5114172;28;20102;-35
2021/10/24 04:25:25;;;;;;;13.80;11.37;;;;;;;3.99;98.98;102612.66;5114433;28;20448;-35
2021/10/24 04:27:51;;;;;;;17.63;11.10;;;;;;;3.86;99.35;102602.28;5114734;28;20020;-35
2021/10/24 04:30:16;;;;;;;15.00;12.13;;;;;;;3.99;98.92;102608.13;5114169;28;20312;-35
2021/10/24 04:32:43;;;;;;;14.87;11.63;;;;;;;3.90;99.36;102597.44;5114123;28;20031;-35
2021/10/24 04:35:10;;;;;;;15.77;11.32;;;;;;;3.94;99.60;102615.75;5113964;28;20531;-35
2021/10/24 04:37:35;;;;;;;18.45;11.55;;;;;;;3.94;100.00;102609.56;5113940;28;20021;-35
2021/10/24 04:40:01;;;;;;;16.60;11.47;;;;;;;3.96;99.52;102610.28;5114471;28;20023;-35
2021/10/24 04:42:27;;;;;;;16.70;12.32;;;;;;;3.88;99.24;102611.81;5113891;28;20096;-35
2021/10/24 04:44:52;;;;;;;13.77;10.50;;;;;;;3.97;100.00;102602.09;5113493;28;20019;-35
2021/10/24 04:47:17;;;;;;;11.90;10.47;;;;;;;3.90;100.00;102584.91;5113637;28;20031;-35
2021/10/24 04:49:43;;;;;;;12.23;10.40;;;;;;;4.00;100.00;102599.13;5113814;28;20019;-35
2021/10/24 04:52:08;;;;;;;13.97;11.07;;;;;;;3.92;100.00;102600.84;5113827;28;20023;-35
2021/10/24 04:54:35;;;;;;;16.83;10.83;;;;;;;3.95;100.00;102605.88;5113701;28;20147;-35
2021/10/24 04:57:01;;;;;;;13.07;10.65;;;;;;;3.92;100.00;102600.84;5113663;28;20102;-35
2021/10/24 04:59:26;;;;;;;13.37;9.90;;;;;;;3.96;100.00;102599.56;5113453;28;20107;-35
2021/10/24 05:01:51;;;;;;;17.47;9.73;;;;;;;3.90;100.00;102579.56;5114060;28;20016;-35
2021/10/24 05:04:18;;;;;;;13.07;10.63;;;;;;;3.93;100.00;102578.44;5114219;28;20104;-35
2021/10/24 05:06:44;;;;;;;12.95;10.27;;;;;;;4.00;100.00;102593.78;5114381;28;20039;-35
2021/10/24 05:09:09;;;;;;;19.33;11.03;;;;;;;3.95;100.00;102589.81;5113830;28;20028;-35
2021/10/24 05:11:35;;;;;;;14.17;10.10;;;;;;;3.94;100.00;102582.78;5114118;28;20329;-35
2021/10/24 05:14:04;;;;;;;13.87;10.03;;;;;;;3.90;99.61;102576.03;5113273;28;20471;-35
2021/10/24 05:16:30;;;;;;;14.32;10.48;;;;;;;3.93;100.00;102581.94;5113329;28;20054;-35
2021/10/24 05:18:55;;;;;;;14.07;10.35;;;;;;;3.93;99.90;102570.41;5114068;28;20084;-35
2021/10/24 05:21:21;;;;;;;14.47;10.03;;;;;;;3.91;100.00;102578.59;5114043;28;20039;-35
2021/10/24 05:23:46;;;;;;;13.73;9.53;;;;;;;3.98;100.00;102568.13;5113612;28;20023;-35
2021/10/24 05:26:11;;;;;;;13.53;10.70;;;;;;;3.89;99.81;102564.50;5114022;28;20381;-35
2021/10/24 05:28:36;;;;;;;13.10;9.97;;;;;;;3.87;99.35;102566.47;5113357;28;20015;-35
2021/10/24 05:31:02;;;;;;;12.10;9.33;;;;;;;3.92;100.00;102560.69;5113686;28;20023;-35
2021/10/24 05:33:28;;;;;;;16.35;10.40;;;;;;;3.77;100.00;102550.44;5113882;28;20020;-35
2021/10/24 05:35:53;;;;;;;15.47;10.30;;;;;;;3.61;99.60;102534.13;5113386;28;20019;-35
2021/10/24 05:38:20;;;;;;;13.10;10.07;;;;;;;3.77;99.64;102565.66;5114107;28;20253;-35
2021/10/24 05:40:46;;;;;;;12.00;9.48;;;;;;;3.75;99.83;102556.91;5113047;28;20536;-35
2021/10/24 05:43:12;;;;;;;12.70;10.32;;;;;;;3.66;99.35;102541.72;5113762;28;20020;-35
2021/10/24 05:45:37;;;;;;;13.93;10.40;;;;;;;3.70;99.64;102565.38;5113007;28;20478;-35
2021/10/24 05:48:03;;;;;;;17.17;10.05;;;;;;;3.72;100.00;102563.41;5114258;28;20442;-35
2021/10/24 05:50:29;;;;;;;12.93;10.60;;;;;;;3.67;100.00;102560.34;5117483;28;20027;-35
2021/10/24 05:52:55;;;;;;;14.45;10.50;;;;;;;3.70;100.00;102554.66;5117912;28;20608;-35
2021/10/24 05:55:21;;;;;;;15.77;10.87;;;;;;;3.70;100.00;102560.03;5117118;28;20020;-35
2021/10/24 05:57:46;;;;;;;13.07;9.95;;;;;;;3.59;99.43;102557.53;5117794;28;20254;-35
2021/10/24 06:00:12;;;;;;;11.47;9.87;;;;;;;3.65;99.80;102556.94;5116763;28;20532;-35
2021/10/24 06:02:37;;;;;;;14.85;10.13;;;;;;;3.52;100.00;102546.56;5117213;28;20034;-35
2021/10/24 06:05:03;;;;;;;13.13;10.70;;;;;;;3.42;100.00;102513.63;5116500;28;20015;-35
2021/10/24 06:07:31;;;;;;;13.05;10.35;;;;;;;3.51;99.92;102528.78;5117188;28;20019;-35
2021/10/24 06:10:01;;;;;;;16.90;11.15;;;;;;;3.50;100.00;102532.47;5116838;28;20074;-35
2021/10/24 06:15:03;;;;;;;14.43;10.25;;;;;;;3.46;100.00;102525.72;5116762;28;20059;-35
2021/10/24 06:17:29;;;;;;;13.70;9.65;;;;;;;3.58;100.00;102542.47;5116923;28;20138;-35
2021/10/24 06:19:55;;;;;;;16.33;10.23;;;;;;;3.36;99.80;102523.06;5117025;28;20043;-35
2021/10/24 06:22:20;;;;;;;16.10;10.50;;;;;;;3.35;100.00;102521.38;5116695;28;20455;-35
2021/10/24 06:24:47;;;;;;;13.90;10.52;;;;;;;3.46;100.00;102522.19;5116104;28;20491;-35
2021/10/24 06:27:12;;;;;;;15.60;10.53;;;;;;;3.46;100.00;102536.41;5116588;28;20062;-35
2021/10/24 06:29:38;;;;;;;14.27;11.80;;;;;;;3.47;100.00;102534.59;5098193;28;20023;-40
2021/10/24 06:32:04;;;;;;;16.93;10.43;;;;;;;3.46;100.00;102538.25;5117215;28;20062;-35
2021/10/24 06:34:29;;;;;;;15.20;10.95;;;;;;;3.49;100.00;102537.97;5116824;28;20618;-35
2021/10/24 06:36:55;;;;;;;13.73;10.23;;;;;;;3.51;100.00;102538.66;5117060;28;20035;-35
2021/10/24 06:39:21;;;;;;;16.27;10.35;;;;;;;3.54;100.00;102536.53;5116274;28;20020;-35
2021/10/24 06:41:46;;;;;;;11.33;9.80;;;;;;;3.63;100.00;102540.19;5116519;28;20023;-35
2021/10/24 06:44:11;;;;;;;15.00;11.23;;;;;;;3.55;100.00;102532.88;5115993;28;20466;-35
2021/10/24 06:46:37;;;;;;;17.93;11.27;;;;;;;3.53;100.00;102528.69;5116648;28;20132;-35
2021/10/24 06:49:02;;;;;;;13.63;10.67;;;;;;;3.56;100.00;102520.34;5115723;28;20012;-35
2021/10/24 06:51:27;;;;;;;12.43;10.10;;;;;;;3.62;100.00;102525.13;5116614;28;20180;-35
2021/10/24 06:53:53;;;;;;;15.43;10.93;;;;;;;3.61;100.00;102528.78;5115969;28;20091;-35
2021/10/24 06:56:18;;;;;;;17.90;11.13;;;;;;;3.59;100.00;102520.06;5116165;28;20106;-35
2021/10/24 06:58:43;;;;;;;14.50;10.93;;;;;;;3.59;100.00;102523.59;5114980;28;20059;-35
2021/10/24 07:01:08;;;;;;;16.60;10.93;;;;;;;3.65;100.00;102513.28;5115409;28;20064;-35
2021/10/24 07:03:34;;;;;;;17.87;11.47;;;;;;;3.67;100.00;102517.53;5116130;28;20110;-35
2021/10/24 07:05:59;;;;;;;15.43;10.97;;;;;;;3.66;100.00;102518.53;5116047;28;20042;-35
2021/10/24 07:08:24;;;;;;;13.20;9.63;;;;;;;3.65;100.00;102498.06;5115780;28;20375;-35
2021/10/24 07:10:50;;;;;;;14.80;10.63;;;;;;;3.74;100.00;102507.91;5115587;28;20020;-35
2021/10/24 07:13:15;;;;;;;16.83;11.20;;;;;;;3.69;100.00;102493.28;5115633;28;20051;-35
2021/10/24 07:15:40;;;;;;;17.13;11.93;;;;;;;3.80;100.00;102507.31;5115482;28;20027;-35
2021/10/24 07:18:06;;;;;;;17.13;11.50;;;;;;;3.82;100.00;102501.84;5115482;28;20023;-35
2021/10/24 07:20:31;;;;;;;14.07;10.80;;;;;;;3.94;100.00;102503.34;5116193;28;20039;-35
2021/10/24 07:22:57;;;;;;;15.17;11.20;;;;;;;3.77;100.00;102464.81;5115795;28;20032;-35
2021/10/24 07:25:23;;;;;;;19.43;11.37;;;;;;;4.06;100.00;102514.72;5115378;28;20037;-35
2021/10/24 07:27:49;;;;;;;14.23;10.00;;;;;;;4.16;100.00;102504.81;5114975;28;20471;-35
2021/10/24 07:30:14;;;;;;;15.18;10.40;;;;;;;4.11;100.00;102488.34;5115205;28;20024;-35
2021/10/24 07:32:40;;;;;;;20.73;11.40;;;;;;;4.21;100.00;102499.84;5115264;28;20034;-35
2021/10/24 07:35:06;;;;;;;;;;;;;;;4.30;100.00;102490.91;5115483;28;20474;-35
2021/10/24 07:37:31;;;;;;;11.90;9.65;;;;;;;4.13;100.00;102457.72;5115053;28;19911;-35
2021/10/24 07:39:57;;;;;;;14.93;10.13;;;;;;;4.34;100.00;102489.63;5114991;28;20080;-35
2021/10/24 07:42:23;;;;;;;13.18;10.20;;;;;;;4.39;100.00;102491.84;5115034;28;20028;-35
2021/10/24 07:44:49;;;;;;;15.43;9.50;;;;;;;4.47;100.00;102491.09;5114834;28;20111;-35
2021/10/24 07:47:14;;;;;;;18.63;11.05;;;;;;;4.53;100.00;102485.13;5114998;28;20031;-35
2021/10/24 07:49:40;;;;;;;12.33;9.70;;;;;;;4.59;100.00;102492.59;5115172;28;20016;-35
2021/10/24 07:52:05;;;;;;;16.03;9.40;;;;;;;4.60;100.00;102483.53;5097228;28;20443;-35
2021/10/24 07:54:30;;;;;;;16.77;10.47;;;;;;;4.41;99.98;102454.22;5114564;28;20023;-35
2021/10/24 07:56:56;;;;;;;18.40;10.13;;;;;;;4.60;100.00;102472.81;5114533;28;20035;-35
2021/10/24 07:59:22;;;;;;;13.43;10.43;;;;;;;4.77;99.97;102488.06;5114771;28;20030;-35
2021/10/24 08:01:47;;;;;;;12.38;9.27;;;;;;;4.84;100.00;102480.25;5114970;28;20356;-35
2021/10/24 08:04:12;;;;;;;15.43;9.10;;;;;;;4.93;99.83;102473.13;5114538;28;20064;-35
2021/10/24 08:06:39;;;;;;;14.93;9.47;;;;;;;4.86;99.43;102448.78;5114961;28;20599;-35
2021/10/24 08:09:08;;;;;;;15.70;9.32;;;;;;;5.09;100.00;102478.63;5114836;28;20024;-35
2021/10/24 08:11:34;;;;;;;12.95;8.88;;;;;;;5.14;100.00;102469.13;5113640;28;20480;-35
2021/10/24 08:14:02;;;;;;;11.88;9.15;;;;;;;5.21;100.00;102476.53;5114645;28;20092;-35
2021/10/24 08:16:27;;;;;;;13.93;9.00;;;;;;;5.31;99.83;102478.13;5114189;28;20486;-35
2021/10/24 08:18:53;;;;;;;19.60;8.93;;;;;;;5.21;99.18;102439.00;5114136;28;20047;-35
2021/10/24 08:21:19;;;;;;;14.77;9.40;;;;;;;5.39;99.50;102456.72;5114274;28;20138;-35
2021/10/24 08:23:45;;;;;;;13.52;8.52;;;;;;;5.36;99.34;102435.56;5114445;28;20305;-35
2021/10/24 08:26:11;;;;;;;15.47;9.10;;;;;;;5.57;98.27;102455.84;5114758;28;20026;-35
2021/10/24 08:28:37;;;;;;;13.70;8.55;;;;;;;5.72;97.88;102459.63;5114022;28;20474;-35
2021/10/24 08:31:03;;;;;;;13.35;8.63;;;;;;;5.77;97.96;102446.56;5114429;28;20023;-35
2021/10/24 08:33:30;;;;;;;9.67;8.60;;;;;;;5.66;97.42;102407.44;5114792;28;20332;-35
2021/10/24 08:35:56;;;;;;;11.15;8.07;;;;;;;5.98;97.70;102446.19;5114099;28;20027;-35
2021/10/24 08:38:22;;;;;;;14.60;7.85;;;;;;;6.05;96.43;102435.63;5114289;28;20444;-35
2021/10/24 08:40:48;;;;;;;14.13;8.30;;;;;;;6.13;96.93;102443.72;5113859;28;20447;-34
2021/10/24 08:43:16;;;;;;;13.68;8.35;;;;;;;6.22;96.93;102428.47;5113964;28;20037;-35
2021/10/24 08:45:42;;;;;;;12.98;8.38;;;;;;;6.28;95.83;102431.34;5113906;28;20026;-35
2021/10/24 08:48:08;;;;;;;;;;;;;;;6.41;96.29;102431.72;5114590;28;20351;-35
2021/10/24 08:50:33;;;;;;;12.37;7.97;;;;;;;6.47;96.75;102422.13;5113838;28;19949;-35
2021/10/24 08:53:04;;;;;;;13.07;8.13;;;;;;;6.55;96.18;102418.63;5113580;28;20780;-35
2021/10/24 08:55:30;;;;;;;10.25;7.85;;;;;;;6.53;94.44;102415.25;5114130;28;20072;-34
2021/10/24 08:57:55;;;;;;;10.50;7.60;;;;;;;6.71;94.00;102430.22;5114482;28;20039;-35
2021/10/24 09:00:20;;;;;;;11.13;7.60;;;;;;;6.76;93.13;102428.91;5114076;28;20026;-35
2021/10/24 09:03:07;;;;;;;11.83;7.83;;;;;;;6.85;93.15;102422.53;5113716;28;20371;-35
2021/10/24 09:05:44;;;;;;;14.30;7.97;;;;;;;6.91;93.71;102425.38;5113719;28;20064;-35
2021/10/24 09:08:19;;;;;;;11.43;7.35;;;;;;;7.03;93.34;102430.41;5114528;28;20254;-35
2021/10/24 09:10:53;;;;;;;12.02;7.68;;;;;;;6.86;93.07;102392.75;5114224;28;20023;-35
2021/10/24 09:13:24;;;;;;;10.73;7.10;;;;;;;7.13;92.87;102415.78;5113940;28;20039;-35
2021/10/24 09:16:07;;;;;;;10.05;7.22;;;;;;;7.22;92.31;102406.69;5113899;28;20024;-35
2021/10/24 09:18:41;;;;;;;10.50;7.45;;;;;;;7.37;91.65;102411.34;5114176;28;20093;-35
2021/10/24 09:21:15;;;;;;;11.77;7.97;;;;;;;7.45;91.40;102417.56;5114558;28;20040;-35
2021/10/24 09:24:09;;;;;;;10.18;7.10;;;;;;;7.57;91.09;102411.84;5116722;28;20478;-35
2021/10/24 09:26:34;;;;;;;13.68;6.82;;;;;;;7.66;89.10;102408.06;5117899;28;20102;-35
2021/10/24 09:29:15;;;;;;;12.30;6.53;;;;;;;7.77;89.73;102410.41;5117952;28;20512;-35
2021/10/24 09:31:41;;;;;;;9.93;6.97;;;;;;;7.81;88.22;102405.50;5117434;28;20143;-35
2021/10/24 09:34:21;;;;;;;10.88;7.03;;;;;;;7.93;88.99;102399.56;5118302;28;20053;-35
2021/10/24 09:36:57;;;;;;;11.77;7.03;;;;;;;7.99;87.33;102398.84;5117307;28;20024;-35
2021/10/24 09:39:31;;;;;;;9.90;6.70;;;;;;;8.08;87.92;102391.56;5117264;28;20024;-35
2021/10/24 09:42:29;;;;;;;11.65;7.13;;;;;;;8.21;88.15;102399.09;5117478;28;20034;-35
2021/10/24 09:45:07;;;;;;;13.43;6.82;;;;;;;8.28;87.07;102400.03;5034540;28;20057;-35
2021/10/24 09:47:36;;;;;;;10.93;6.07;;;;;;;8.36;84.45;102391.94;5034705;28;20394;-35
2021/10/24 09:50:32;;;;;;;9.57;5.75;;;;;;;8.50;85.71;102395.72;5034221;28;20036;-35
2021/10/24 09:53:16;;;;;;;9.90;5.93;;;;;;;8.49;86.30;102373.31;5030039;28;20060;-35
2021/10/24 09:55:44;;;;;;;9.65;5.95;;;;;;;8.66;85.99;102379.41;5034349;28;20037;-35
2021/10/24 09:58:11;;;;;;;9.52;6.13;;;;;;;8.75;83.73;102383.72;5034363;28;20466;-35
2021/10/24 10:00:37;;;;;;;11.38;6.38;;;;;;;8.79;82.36;102389.59;5034079;28;20128;-35
2021/10/24 10:03:04;;;;;;;10.07;5.65;;;;;;;8.88;82.33;102387.66;5034418;28;20141;-35
2021/10/24 10:05:30;;;;;;;9.98;5.78;;;;;;;8.93;81.51;102377.16;5033931;28;20444;-35
2021/10/24 10:07:55;;;;;;;8.65;5.43;;;;;;;9.00;81.54;102376.25;5034175;28;20132;-35
2021/10/24 10:10:22;;;;;;;12.97;7.33;;;;;;;9.13;81.54;102372.09;5033952;28;20025;-35
2021/10/24 10:12:51;;;;;;;9.70;6.20;;;;;;;9.12;81.61;102362.31;5034044;28;20033;-35
2021/10/24 10:15:19;;;;;;;10.88;5.75;;;;;;;9.22;81.72;102374.53;5033746;28;20025;-35
2021/10/24 10:17:46;;;;;;;8.75;6.13;;;;;;;9.34;81.57;102366.81;5017165;28;20044;-35
2021/10/24 10:20:26;;;;;;;11.48;6.20;;;;;;;9.34;81.26;102353.31;5065469;28;20036;-35
2021/10/24 10:23:09;;;;;;;11.07;5.45;;;;;;;9.51;81.03;102360.16;5117048;28;20023;-35
2021/10/24 10:25:36;;;;;;;11.57;5.60;;;;;;;9.62;82.33;102368.84;5110501;28;20028;-35
2021/10/24 10:28:03;;;;;;;8.88;5.40;;;;;;;9.71;80.39;102362.28;5096403;28;20025;-35
2021/10/24 10:30:38;;;;;;;11.65;5.28;;;;;;;9.71;80.89;102351.50;5096859;28;20364;-35
2021/10/24 10:33:35;;;;;;;9.18;5.88;;;;;;;9.79;80.48;102354.09;5096434;28;20031;-35
2021/10/24 10:36:03;;;;;;;8.40;5.03;;;;;;;9.82;79.59;102356.44;5095933;28;20081;-35
2021/10/24 10:38:41;;;;;;;11.32;5.25;;;;;;;10.00;76.94;102364.97;5096658;28;20066;-35
2021/10/24 10:41:08;;;;;;;13.50;5.50;;;;;;;10.07;76.76;102367.75;5096703;28;20095;-35
2021/10/24 10:43:34;;;;;;;7.80;5.05;;;;;;;10.12;78.17;102362.59;5096185;28;20052;-35
2021/10/24 10:46:05;;;;;;;8.85;5.40;;;;;;;10.09;77.68;102333.25;5095853;28;20055;-35
2021/10/24 10:48:36;;;;;;;8.73;5.35;;;;;;;10.27;78.83;102351.78;5096649;28;20045;-35
2021/10/24 10:51:10;;;;;;;14.77;5.55;;;;;;;10.38;76.60;102342.31;5095418;28;20452;-35
2021/10/24 10:53:36;;;;;;;7.57;5.05;;;;;;;10.49;75.89;102350.75;5111556;28;20047;-35
2021/10/24 10:56:05;;;;;;;7.93;5.10;;;;;;;10.60;76.15;102346.69;5095879;28;20032;-35
2021/10/24 10:58:33;;;;;;;7.13;5.18;;;;;;;10.69;74.38;102350.09;5096083;28;20120;-35
2021/10/24 11:01:00;;;;;;;9.05;5.72;;;;;;;10.73;72.92;102354.91;5095477;28;20115;-35
2021/10/24 11:03:46;;;;;;;9.10;5.00;;;;;;;10.78;74.58;102332.66;5096291;28;20024;-35
2021/10/24 11:06:34;;;;;;;10.05;5.43;;;;;;;10.94;73.74;102351.34;5095426;28;20115;-35
2021/10/24 11:09:03;;;;;;;6.93;4.38;;;;;;;10.91;72.53;102334.66;5095408;28;20028;-35
2021/10/24 11:11:38;;;;;;;10.25;5.60;;;;;;;11.03;72.57;102350.16;5095242;28;20121;-35
2021/10/24 11:14:15;;;;;;;10.38;5.80;;;;;;;11.11;72.25;102342.91;5095558;28;20039;-35
2021/10/24 11:16:51;;;;;;;7.40;4.80;;;;;;;11.07;72.24;102332.47;5095407;28;20020;-35
2021/10/24 11:19:26;;;;;;;8.38;4.55;;;;;;;11.27;72.01;102348.88;5095365;28;20058;-35
2021/10/24 11:21:53;;;;;;;6.22;3.95;;;;;;;11.32;69.53;102345.53;5095566;28;20050;-35